createdAt,value
2023-04-14T00:00:10.028Z,3.97
2023-04-14T00:02:38.482Z,6.10
2023-04-14T00:05:08.315Z,4.82
2023-04-14T00:07:36.677Z,7.03
2023-04-14T00:10:05.345Z,4.03
2023-04-14T00:12:34.992Z,2.70
2023-04-14T00:15:03.346Z,3.75
2023-04-14T00:17:32.392Z,3.90
2023-04-14T00:20:00.782Z,6.68
2023-04-14T00:22:29.072Z,4.32
2023-04-14T00:24:57.471Z,4.93
2023-04-14T00:27:25.875Z,4.25
2023-04-14T00:29:55.548Z,5.38
2023-04-14T00:32:23.843Z,4.27
2023-04-14T00:34:52.129Z,3.40
2023-04-14T00:37:20.493Z,4.50
2023-04-14T00:39:48.723Z,3.00
2023-04-14T00:42:17.014Z,2.25
2023-04-14T00:44:47.369Z,5.40
2023-04-14T00:47:17.313Z,3.63
2023-04-14T00:49:45.981Z,0.60
2023-04-14T00:52:14.218Z,0.90
2023-04-14T00:54:42.500Z,5.60
2023-04-14T00:57:10.988Z,0.80
2023-04-14T00:59:39.342Z,0.93
2023-04-14T01:02:07.781Z,1.92
2023-04-14T01:04:51.900Z,0.98
2023-04-14T01:07:21.844Z,1.67
2023-04-14T01:09:50.455Z,1.83
2023-04-14T01:12:26.206Z,1.50
2023-04-14T01:15:04.536Z,4.28
2023-04-14T01:17:36.850Z,2.22
2023-04-14T01:20:14.585Z,1.73
2023-04-14T01:22:48.515Z,2.60
2023-04-14T01:25:42.949Z,1.55
2023-04-14T01:28:17.278Z,1.27
2023-04-14T01:31:00.867Z,2.67
2023-04-14T01:33:31.698Z,3.13
2023-04-14T01:36:02.207Z,2.63
2023-04-14T01:38:36.018Z,2.00
2023-04-14T01:41:07.650Z,5.63
2023-04-14T01:43:39.061Z,1.85
2023-04-14T01:46:08.723Z,2.92
2023-04-14T01:48:39.560Z,1.93
2023-04-14T01:51:08.894Z,3.40
2023-04-14T01:53:39.081Z,3.60
2023-04-14T01:56:09.208Z,3.08
2023-04-14T01:58:38.520Z,2.28
2023-04-14T02:01:07.922Z,7.43
2023-04-14T02:03:38.549Z,6.35
2023-04-14T02:08:37.457Z,3.35
2023-04-14T02:11:06.454Z,3.42
2023-04-14T02:13:36.490Z,4.53
2023-04-14T02:16:07.409Z,7.63
2023-04-14T02:18:38.217Z,4.07
2023-04-14T02:21:07.263Z,3.63
2023-04-14T02:23:35.602Z,2.58
2023-04-14T02:26:09.714Z,2.53
2023-04-14T02:28:43.077Z,2.10
2023-04-14T02:31:14.247Z,1.75
2023-04-14T02:33:45.024Z,2.67
2023-04-14T02:36:17.349Z,4.57
2023-04-14T02:38:48.046Z,1.60
2023-04-14T02:41:21.546Z,1.35
2023-04-14T02:43:52.873Z,1.23
2023-04-14T02:46:23.227Z,2.53
2023-04-14T02:48:53.598Z,1.13
2023-04-14T02:51:22.868Z,1.05
2023-04-14T02:53:51.594Z,1.40
2023-04-14T02:56:20.139Z,0.60
2023-04-14T02:58:49.162Z,1.42
2023-04-14T03:01:17.661Z,0.75
2023-04-14T03:03:46.076Z,0.77
2023-04-14T03:06:16.630Z,3.13
2023-04-14T03:08:45.475Z,3.63
2023-04-14T03:11:15.479Z,0.85
2023-04-14T03:13:44.755Z,1.00
2023-04-14T03:16:13.416Z,2.47
2023-04-14T03:18:42.091Z,3.83
2023-04-14T03:21:10.542Z,1.67
2023-04-14T03:23:41.196Z,1.90
2023-04-14T03:28:38.690Z,2.47
2023-04-14T03:31:08.953Z,3.90
2023-04-14T03:33:38.737Z,1.58
2023-04-14T03:36:08.554Z,3.60
2023-04-14T03:38:37.119Z,2.03
2023-04-14T03:41:09.663Z,2.47
2023-04-14T03:43:38.777Z,2.08
2023-04-14T03:46:07.587Z,3.13
2023-04-14T03:48:42.391Z,3.75
2023-04-14T03:51:13.191Z,2.40
2023-04-14T03:53:42.148Z,2.63
2023-04-14T03:56:13.339Z,3.53
2023-04-14T03:58:42.284Z,7.50
2023-04-14T04:01:10.756Z,3.22
2023-04-14T04:03:41.024Z,5.50
2023-04-14T04:06:09.697Z,5.45
2023-04-14T04:08:38.481Z,3.10
2023-04-14T04:11:07.200Z,5.18
2023-04-14T04:13:38.050Z,4.30
2023-04-14T04:16:08.470Z,4.82
2023-04-14T04:18:39.184Z,4.18
2023-04-14T04:23:36.070Z,6.95
2023-04-14T04:26:04.414Z,6.47
2023-04-14T04:28:32.901Z,6.38
2023-04-14T04:31:06.293Z,7.10
2023-04-14T04:33:35.610Z,12.10
2023-04-14T04:36:05.378Z,5.10
2023-04-14T04:38:33.689Z,8.60
2023-04-14T04:41:02.007Z,9.45
2023-04-14T04:43:30.304Z,9.93
2023-04-14T04:46:15.493Z,7.65
2023-04-14T04:48:43.763Z,8.45
2023-04-14T04:51:11.977Z,10.98
2023-04-14T04:53:40.304Z,6.68
2023-04-14T04:56:09.276Z,10.75
2023-04-14T04:58:37.598Z,7.50
2023-04-14T05:01:10.423Z,13.52
2023-04-14T05:03:39.062Z,8.43
2023-04-14T05:06:07.546Z,10.85
2023-04-14T05:08:36.014Z,10.82
2023-04-14T05:11:04.365Z,12.18
2023-04-14T05:13:32.981Z,9.23
2023-04-14T05:16:05.445Z,10.20
2023-04-14T05:18:36.346Z,10.55
2023-04-14T05:21:04.936Z,8.88
2023-04-14T05:23:34.266Z,8.43
2023-04-14T05:26:22.394Z,6.97
2023-04-14T05:28:50.890Z,11.30
2023-04-14T05:31:20.196Z,9.88
2023-04-14T05:33:49.860Z,9.60
2023-04-14T05:36:18.142Z,5.60
2023-04-14T05:38:46.549Z,8.13
2023-04-14T05:41:14.772Z,7.25
2023-04-14T05:43:43.035Z,9.68
2023-04-14T05:46:11.341Z,3.70
2023-04-14T05:48:39.747Z,10.45
2023-04-14T05:51:09.348Z,8.15
2023-04-14T05:53:37.668Z,8.13
2023-04-14T05:56:06.496Z,7.70
2023-04-14T05:58:34.724Z,5.22
2023-04-14T06:01:04.028Z,8.40
2023-04-14T06:03:32.879Z,6.78
2023-04-14T06:06:01.270Z,7.93
2023-04-14T06:08:31.329Z,7.25
2023-04-14T06:10:59.647Z,6.70
2023-04-14T06:13:31.159Z,7.97
2023-04-14T06:16:00.870Z,8.77
2023-04-14T06:18:29.196Z,5.40
2023-04-14T06:20:57.450Z,7.47
2023-04-14T06:23:26.805Z,6.97
2023-04-14T06:25:57.866Z,5.25
2023-04-14T06:28:26.564Z,5.22
2023-04-14T06:30:54.990Z,6.63
2023-04-14T06:33:23.886Z,5.43
2023-04-14T06:35:52.156Z,8.15
2023-04-14T06:38:20.725Z,8.98
2023-04-14T06:40:50.293Z,7.65
2023-04-14T06:43:21.520Z,5.82
2023-04-14T06:45:50.994Z,5.22
2023-04-14T06:48:19.462Z,11.30
2023-04-14T06:50:54.669Z,7.93
2023-04-14T06:53:23.069Z,6.88
2023-04-14T06:55:59.003Z,6.30
2023-04-14T06:58:29.750Z,7.47
2023-04-14T07:00:58.412Z,9.48
2023-04-14T07:03:27.503Z,5.68
2023-04-14T07:05:55.853Z,7.22
2023-04-14T07:08:24.116Z,11.70
2023-04-14T07:11:00.501Z,10.63
2023-04-14T07:13:30.519Z,5.25
2023-04-14T07:15:59.343Z,11.02
2023-04-14T07:18:27.773Z,8.07
2023-04-14T07:20:56.344Z,6.35
2023-04-14T07:23:24.682Z,4.65
2023-04-14T07:25:53.503Z,8.40
2023-04-14T07:28:22.070Z,6.35
2023-04-14T07:30:52.699Z,6.45
2023-04-14T07:36:01.318Z,7.53
2023-04-14T07:38:31.108Z,4.28
2023-04-14T07:40:59.387Z,10.00
2023-04-14T07:43:27.920Z,7.57
2023-04-14T07:45:57.675Z,8.25
2023-04-14T07:48:26.136Z,7.28
2023-04-14T07:50:54.974Z,6.63
2023-04-14T07:53:23.342Z,7.28
2023-04-14T07:55:51.569Z,6.50
2023-04-14T07:58:19.923Z,7.70
2023-04-14T08:00:48.182Z,7.00
2023-04-14T08:03:18.266Z,7.43
2023-04-14T08:05:46.740Z,7.45
2023-04-14T08:08:15.468Z,7.70
2023-04-14T08:10:43.767Z,8.40
2023-04-14T08:13:12.035Z,5.70
2023-04-14T08:15:40.374Z,4.80
2023-04-14T08:18:08.706Z,3.78
2023-04-14T08:20:38.580Z,3.72
2023-04-14T08:23:06.815Z,5.45
2023-04-14T08:25:35.150Z,4.22
2023-04-14T08:28:03.540Z,4.93
2023-04-14T08:30:32.264Z,2.90
2023-04-14T08:33:00.570Z,1.63
2023-04-14T08:35:35.509Z,2.97
2023-04-14T08:38:10.109Z,5.93
2023-04-14T08:40:40.437Z,4.28
2023-04-14T08:43:08.933Z,2.42
2023-04-14T08:45:37.564Z,2.60
2023-04-14T08:48:06.789Z,2.97
2023-04-14T08:50:39.004Z,4.50
2023-04-14T08:53:11.052Z,2.28
2023-04-14T08:55:41.639Z,3.78
2023-04-14T09:00:40.004Z,2.10
2023-04-14T09:03:09.441Z,2.53
2023-04-14T09:05:38.323Z,2.45
2023-04-14T09:08:06.819Z,4.43
2023-04-14T09:10:37.047Z,5.70
2023-04-14T09:13:06.663Z,2.25
2023-04-14T09:15:34.963Z,1.80
2023-04-14T09:18:03.414Z,3.45
2023-04-14T09:20:37.400Z,3.47
2023-04-14T09:23:08.840Z,6.05
2023-04-14T09:25:39.392Z,2.67
2023-04-14T09:28:07.740Z,3.95
2023-04-14T09:30:36.458Z,4.10
2023-04-14T09:33:08.116Z,3.55
2023-04-14T09:35:45.161Z,4.28
2023-04-14T09:38:13.428Z,2.67
2023-04-14T09:40:45.038Z,1.95
2023-04-14T09:43:26.979Z,2.33
2023-04-14T09:45:56.309Z,3.17
2023-04-14T09:48:25.729Z,1.95
2023-04-14T09:50:58.693Z,5.18
2023-04-14T09:53:28.432Z,3.65
2023-04-14T09:55:59.721Z,2.00
2023-04-14T09:58:31.237Z,3.60
2023-04-14T10:01:00.517Z,3.97
2023-04-14T10:03:38.904Z,3.63
2023-04-14T10:06:10.955Z,2.67
2023-04-14T10:08:41.051Z,4.30
2023-04-14T10:11:17.904Z,2.58
2023-04-14T10:13:46.922Z,4.90
2023-04-14T10:16:15.657Z,5.25
2023-04-14T10:18:44.223Z,3.38
2023-04-14T10:21:12.589Z,2.25
2023-04-14T10:23:41.860Z,1.85
2023-04-14T10:26:11.961Z,1.63
2023-04-14T10:28:44.657Z,3.83
2023-04-14T10:31:16.232Z,2.67
2023-04-14T10:33:44.634Z,3.05
2023-04-14T10:36:13.325Z,2.75
2023-04-14T10:38:43.500Z,1.67
2023-04-14T10:41:12.697Z,4.10
2023-04-14T10:43:42.358Z,3.50
2023-04-14T10:46:11.356Z,4.20
2023-04-14T10:48:41.328Z,2.47
2023-04-14T10:51:11.743Z,3.33
2023-04-14T10:53:45.059Z,2.40
2023-04-14T10:56:13.552Z,4.45
2023-04-14T10:58:45.553Z,3.05
2023-04-14T11:01:27.113Z,6.28
2023-04-14T11:03:56.352Z,3.13
2023-04-14T11:06:50.125Z,2.50
2023-04-14T11:09:25.476Z,2.70
2023-04-14T11:11:55.608Z,2.25
2023-04-14T11:14:28.760Z,2.05
2023-04-14T11:17:04.126Z,3.17
2023-04-14T11:19:34.177Z,2.88
2023-04-14T11:22:02.451Z,2.88
2023-04-14T11:24:30.744Z,2.60
2023-04-14T11:27:00.138Z,2.80
2023-04-14T11:29:29.734Z,2.28
2023-04-14T11:32:05.789Z,1.60
2023-04-14T11:34:35.051Z,2.42
2023-04-14T11:37:04.274Z,1.60
2023-04-14T11:39:33.061Z,2.25
2023-04-14T11:42:01.320Z,1.73
2023-04-14T11:44:30.955Z,1.55
2023-04-14T11:46:59.261Z,2.13
2023-04-14T11:49:36.653Z,3.28
2023-04-14T11:52:08.841Z,2.50
2023-04-14T11:54:37.970Z,3.80
2023-04-14T11:57:12.737Z,1.00
2023-04-14T11:59:44.050Z,2.40
2023-04-14T12:02:17.546Z,2.03
2023-04-14T12:04:46.902Z,2.42
2023-04-14T12:07:17.071Z,2.60
2023-04-14T12:09:46.899Z,2.05
2023-04-14T12:12:17.213Z,2.50
2023-04-14T12:14:48.036Z,2.15
2023-04-14T12:17:18.819Z,2.35
2023-04-14T12:19:47.306Z,1.73
2023-04-14T12:22:16.164Z,1.85
2023-04-14T12:24:44.840Z,1.38
2023-04-14T12:27:15.096Z,2.22
2023-04-14T12:29:45.199Z,3.28
2023-04-14T12:32:15.422Z,2.20
2023-04-14T12:34:54.299Z,2.13
2023-04-14T12:37:26.035Z,3.83
2023-04-14T12:39:58.154Z,2.78
2023-04-14T12:42:26.710Z,2.78
2023-04-14T12:44:56.252Z,1.33
2023-04-14T12:47:29.920Z,4.20
2023-04-14T12:49:59.375Z,7.30
2023-04-14T12:52:35.567Z,3.38
2023-04-14T12:55:04.824Z,3.92
2023-04-14T12:57:33.631Z,2.55
2023-04-14T13:00:02.362Z,2.25
2023-04-14T13:05:19.116Z,3.17
2023-04-14T13:07:47.419Z,2.95
2023-04-14T13:10:15.706Z,1.80
2023-04-14T13:12:44.077Z,3.80
2023-04-14T13:16:10.442Z,2.47
2023-04-14T13:18:03.219Z,3.40
2023-04-14T13:20:31.716Z,2.70
2023-04-14T13:23:00.053Z,3.08
2023-04-14T13:25:28.388Z,3.50
2023-04-14T13:27:56.770Z,1.95
2023-04-14T13:30:25.034Z,2.05
2023-04-14T13:32:53.530Z,2.42
2023-04-14T13:35:23.322Z,1.70
2023-04-14T13:37:51.565Z,1.75
2023-04-14T13:40:19.826Z,3.00
2023-04-14T13:42:48.093Z,2.25
2023-04-14T13:45:17.114Z,2.60
2023-04-14T13:47:48.291Z,2.33
2023-04-14T13:50:17.698Z,3.47
2023-04-14T13:52:47.374Z,1.88
2023-04-14T13:55:15.673Z,3.23
2023-04-14T13:57:43.876Z,1.25
2023-04-14T14:00:13.452Z,3.30
2023-04-14T14:02:41.914Z,1.23
2023-04-14T14:05:11.750Z,3.17
2023-04-14T14:07:40.191Z,1.60
2023-04-14T14:10:10.988Z,2.20
2023-04-14T14:12:39.391Z,0.75
2023-04-14T14:15:08.840Z,1.25
2023-04-14T14:17:38.089Z,2.10
2023-04-14T14:20:07.631Z,2.20
2023-04-14T14:22:35.903Z,3.80
2023-04-14T14:25:18.502Z,1.95
2023-04-14T14:27:51.924Z,1.15
2023-04-14T14:30:20.441Z,3.83
2023-04-14T14:32:48.712Z,1.95
2023-04-14T14:35:17.300Z,1.77
2023-04-14T14:37:45.971Z,2.45
2023-04-14T14:40:14.333Z,1.27
2023-04-14T14:42:42.644Z,2.53
2023-04-14T14:45:13.428Z,2.38
2023-04-14T14:47:41.998Z,1.60
2023-04-14T14:50:10.680Z,1.67
2023-04-14T14:52:39.012Z,2.03
2023-04-14T14:55:08.478Z,1.65
2023-04-14T14:57:36.671Z,1.58
2023-04-14T15:00:07.732Z,2.20
2023-04-14T15:02:38.545Z,1.23
2023-04-14T15:05:08.271Z,2.78
2023-04-14T15:07:36.552Z,1.85
2023-04-14T15:10:05.786Z,1.20
2023-04-14T15:12:34.354Z,3.05
2023-04-14T15:15:02.718Z,2.00
2023-04-14T15:17:31.525Z,2.10
2023-04-14T15:20:04.476Z,4.32
2023-04-14T15:22:32.845Z,4.05
2023-04-14T15:25:01.084Z,1.85
2023-04-14T15:27:29.312Z,4.60
2023-04-14T15:29:57.990Z,2.78
2023-04-14T15:32:27.528Z,3.13
2023-04-14T15:34:56.156Z,2.27
2023-04-14T15:37:26.597Z,2.88
2023-04-14T15:39:54.891Z,3.78
2023-04-14T15:42:23.129Z,2.55
2023-04-14T15:44:51.829Z,3.20
2023-04-14T15:47:20.140Z,2.10
2023-04-14T15:49:49.914Z,2.15
2023-04-14T15:52:20.889Z,3.05
2023-04-14T15:54:50.463Z,1.75
2023-04-14T15:57:19.159Z,4.38
2023-04-14T15:59:47.460Z,3.70
2023-04-14T16:02:16.099Z,1.83
2023-04-14T16:04:44.450Z,1.58
2023-04-14T16:07:12.710Z,1.73
2023-04-14T16:09:40.944Z,2.13
2023-04-14T16:12:10.689Z,3.00
2023-04-14T16:14:38.951Z,3.47
2023-04-14T16:17:07.260Z,1.42
2023-04-14T16:19:35.588Z,2.65
2023-04-14T16:22:03.913Z,2.25
2023-04-14T16:24:32.232Z,2.40
2023-04-14T16:27:01.089Z,1.67
2023-04-14T16:29:30.832Z,2.63
2023-04-14T16:31:59.080Z,2.33
2023-04-14T16:34:27.324Z,2.40
2023-04-14T16:36:55.718Z,3.63
2023-04-14T16:39:23.979Z,4.47
2023-04-14T16:41:52.672Z,1.60
2023-04-14T16:44:21.445Z,2.15
2023-04-14T16:46:51.632Z,1.77
2023-04-14T16:49:20.156Z,2.88
2023-04-14T16:51:48.496Z,2.95
2023-04-14T16:54:17.174Z,3.75
2023-04-14T16:56:45.522Z,2.90
2023-04-14T16:59:13.885Z,2.83
2023-04-14T17:01:42.285Z,2.33
2023-04-14T17:04:12.427Z,5.78
2023-04-14T17:06:40.908Z,3.97
2023-04-14T17:09:09.287Z,3.28
2023-04-14T17:11:37.520Z,2.60
2023-04-14T17:14:06.521Z,3.40
2023-04-14T17:16:35.006Z,1.77
2023-04-14T17:19:04.466Z,2.65
2023-04-14T17:21:34.094Z,2.90
2023-04-14T17:24:03.221Z,2.15
2023-04-14T17:26:31.588Z,1.38
2023-04-14T17:28:59.968Z,4.60
2023-04-14T17:31:28.524Z,1.75
2023-04-14T17:33:57.504Z,1.85
2023-04-14T17:36:25.718Z,2.20
2023-04-14T17:38:55.573Z,3.08
2023-04-14T17:41:24.190Z,1.98
2023-04-14T17:43:55.062Z,4.53
2023-04-14T17:46:33.547Z,5.25
2023-04-14T17:49:02.774Z,6.65
2023-04-14T17:51:32.276Z,3.17
2023-04-14T17:54:02.459Z,4.05
2023-04-14T17:56:31.845Z,5.38
2023-04-14T17:59:00.592Z,7.07
2023-04-14T18:01:28.875Z,4.18
2023-04-14T18:03:58.307Z,6.05
2023-04-14T18:06:26.673Z,6.25
2023-04-14T18:08:55.001Z,4.15
2023-04-14T18:11:24.582Z,4.07
2023-04-14T18:13:53.743Z,3.95
2023-04-14T18:16:22.214Z,3.30
2023-04-14T18:18:50.820Z,3.20
2023-04-14T18:21:19.336Z,4.10
2023-04-14T18:24:47.916Z,2.47
2023-04-14T18:26:37.191Z,3.55
2023-04-14T18:29:05.818Z,2.47
2023-04-14T18:31:34.197Z,3.75
2023-04-14T18:34:04.317Z,4.38
2023-04-14T18:36:33.444Z,7.22
2023-04-14T18:39:02.301Z,6.10
2023-04-14T18:41:30.799Z,4.10
2023-04-14T18:44:00.426Z,4.95
2023-04-14T18:46:28.744Z,3.30
2023-04-14T18:48:57.074Z,4.45
2023-04-14T18:51:25.892Z,6.03
2023-04-14T18:53:54.397Z,4.13
2023-04-14T18:56:22.619Z,4.55
2023-04-14T18:58:51.881Z,5.32
2023-04-14T19:01:21.575Z,3.50
2023-04-14T19:03:49.978Z,5.40
2023-04-14T19:06:18.243Z,4.35
2023-04-14T19:08:46.563Z,2.53
2023-04-14T19:11:14.883Z,4.50
2023-04-14T19:13:43.149Z,1.95
2023-04-14T19:16:12.534Z,4.47
2023-04-14T19:18:42.876Z,4.90
2023-04-14T19:21:11.170Z,4.43
2023-04-14T19:23:40.959Z,3.95
2023-04-14T19:26:11.493Z,7.05
2023-04-14T19:28:42.379Z,6.10
2023-04-14T19:31:11.001Z,5.15
2023-04-14T19:33:39.297Z,5.88
2023-04-14T19:36:14.153Z,5.22
2023-04-14T19:38:42.555Z,4.35
2023-04-14T19:41:10.888Z,3.47
2023-04-14T19:43:39.151Z,5.15
2023-04-14T19:46:09.453Z,2.05
2023-04-14T19:48:38.992Z,4.50
2023-04-14T19:51:07.329Z,3.67
2023-04-14T19:53:37.420Z,3.53
2023-04-14T19:56:07.285Z,4.18
2023-04-14T19:58:36.410Z,5.78
2023-04-14T20:01:05.709Z,4.97
2023-04-14T20:03:34.780Z,5.57
2023-04-14T20:06:03.354Z,3.90
2023-04-14T20:08:32.377Z,6.25
2023-04-14T20:11:02.042Z,3.65
2023-04-14T20:13:32.132Z,5.77
2023-04-14T20:16:01.461Z,4.53
2023-04-14T20:18:30.048Z,6.40
2023-04-14T20:20:59.059Z,4.90
2023-04-14T20:23:27.870Z,8.05
2023-04-14T20:25:56.772Z,7.90
2023-04-14T20:28:26.776Z,5.35
2023-04-14T20:30:56.007Z,7.25
2023-04-14T20:33:24.870Z,6.32
2023-04-14T20:35:54.217Z,7.35
2023-04-14T20:38:23.558Z,8.05
2023-04-14T20:40:52.012Z,8.68
2023-04-14T20:43:20.348Z,6.75
2023-04-14T20:45:52.532Z,5.47
2023-04-14T20:48:20.905Z,7.38
2023-04-14T20:50:50.039Z,6.45
2023-04-14T20:53:22.088Z,4.97
2023-04-14T20:55:51.092Z,4.70
2023-04-14T20:58:19.407Z,7.20
2023-04-14T21:00:47.702Z,5.97
2023-04-14T21:03:17.458Z,8.02
2023-04-14T21:05:46.272Z,5.60
2023-04-14T21:08:14.544Z,6.30
2023-04-14T21:11:16.353Z,6.13
2023-04-14T21:15:24.879Z,6.28
2023-04-14T21:16:19.337Z,5.40
2023-04-14T21:18:48.963Z,8.55
2023-04-14T21:21:17.926Z,5.40
2023-04-14T21:23:46.258Z,5.15
2023-04-14T21:26:14.588Z,4.78
2023-04-14T21:28:43.011Z,4.03
2023-04-14T21:31:11.526Z,5.75
2023-04-14T21:33:41.621Z,5.85
2023-04-14T21:36:11.330Z,5.22
2023-04-14T21:38:39.706Z,4.35
2023-04-14T21:41:09.450Z,5.47
2023-04-14T21:43:38.579Z,8.30
2023-04-14T21:46:06.893Z,5.15
2023-04-14T21:48:35.322Z,4.82
2023-04-14T21:51:04.509Z,6.03
2023-04-14T21:53:36.181Z,5.00
2023-04-14T21:56:10.298Z,6.88
2023-04-14T21:58:40.280Z,5.13
2023-04-14T22:01:09.668Z,6.28
2023-04-14T22:03:40.611Z,6.45
2023-04-14T22:08:40.237Z,5.88
2023-04-14T22:11:08.705Z,6.88
2023-04-14T22:13:37.128Z,5.97
2023-04-14T22:16:05.728Z,5.93
2023-04-14T22:18:35.756Z,6.28
2023-04-14T22:21:04.882Z,7.35
2023-04-14T22:23:33.222Z,5.65
2023-04-14T22:26:03.572Z,6.15
2023-04-14T22:28:31.838Z,5.20
2023-04-14T22:31:00.256Z,4.40
2023-04-14T22:33:28.575Z,5.75
2023-04-14T22:35:56.869Z,5.78
2023-04-14T22:38:25.175Z,6.95
2023-04-14T22:40:53.456Z,7.00
2023-04-14T22:43:23.128Z,4.70
2023-04-14T22:45:51.680Z,4.17
2023-04-14T22:48:19.938Z,4.63
2023-04-14T22:50:48.169Z,6.15
2023-04-14T22:53:16.466Z,5.03
2023-04-14T22:55:45.107Z,4.55
2023-04-14T22:58:16.844Z,4.35
2023-04-14T23:00:46.927Z,4.72
2023-04-14T23:03:15.555Z,5.10
2023-04-14T23:05:44.708Z,5.70
2023-04-14T23:08:13.051Z,5.47
2023-04-14T23:10:41.321Z,8.38
2023-04-14T23:13:09.587Z,4.78
2023-04-14T23:15:37.923Z,5.65
2023-04-14T23:18:07.522Z,4.85
2023-04-14T23:20:36.425Z,6.65
2023-04-14T23:23:05.774Z,6.88
2023-04-14T23:25:34.006Z,5.65
2023-04-14T23:28:02.255Z,4.93
2023-04-14T23:30:30.471Z,4.35
2023-04-14T23:32:58.774Z,8.65
2023-04-14T23:35:29.055Z,6.07
2023-04-14T23:38:02.259Z,4.13
2023-04-14T23:40:31.754Z,8.30
2023-04-14T23:43:00.063Z,8.82
2023-04-14T23:45:28.523Z,4.38
2023-04-14T23:47:58.545Z,6.43
2023-04-14T23:50:58.931Z,4.93
2023-04-14T23:53:16.560Z,9.50
2023-04-14T23:55:44.866Z,5.32
2023-04-14T23:58:13.885Z,4.72
